sensor_id;sensor_type;location;lat;lon;timestamp;pressure;altitude;pressure_sealevel;temperature;humidity
45323;BME280;31382;50.200;8.674;2023-05-29T00:01:21;100494.78;;;17.70;46.51
45323;BME280;31382;50.200;8.674;2023-05-29T00:06:25;100495.28;;;17.60;46.70
45323;BME280;31382;50.200;8.674;2023-05-29T00:11:26;100496.22;;;17.48;47.41
45323;BME280;31382;50.200;8.674;2023-05-29T00:16:28;100492.69;;;17.40;47.75
45323;BME280;31382;50.200;8.674;2023-05-29T00:21:30;100488.13;;;17.28;47.84
45323;BME280;31382;50.200;8.674;2023-05-29T00:26:32;100487.97;;;17.22;48.01
45323;BME280;31382;50.200;8.674;2023-05-29T00:31:33;100478.84;;;17.10;48.22
45323;BME280;31382;50.200;8.674;2023-05-29T00:36:34;100483.25;;;16.98;48.31
45323;BME280;31382;50.200;8.674;2023-05-29T00:41:36;100476.63;;;16.87;48.77
45323;BME280;31382;50.200;8.674;2023-05-29T00:46:37;100484.56;;;16.82;49.11
45323;BME280;31382;50.200;8.674;2023-05-29T00:51:40;100481.66;;;16.77;49.15
45323;BME280;31382;50.200;8.674;2023-05-29T00:56:42;100482.50;;;16.71;49.04
45323;BME280;31382;50.200;8.674;2023-05-29T01:01:48;100486.91;;;16.65;49.38
45323;BME280;31382;50.200;8.674;2023-05-29T01:06:51;100491.09;;;16.61;49.60
45323;BME280;31382;50.200;8.674;2023-05-29T01:12:31;100486.91;;;16.52;49.68
45323;BME280;31382;50.200;8.674;2023-05-29T01:23:45;100481.09;;;16.35;50.18
45323;BME280;31382;50.200;8.674;2023-05-29T01:28:54;100494.47;;;16.30;50.46
45323;BME280;31382;50.200;8.674;2023-05-29T01:33:58;100483.22;;;16.19;50.35
45323;BME280;31382;50.200;8.674;2023-05-29T01:39:04;100485.28;;;16.11;50.98
45323;BME280;31382;50.200;8.674;2023-05-29T01:44:08;100475.06;;;16.06;51.15
45323;BME280;31382;50.200;8.674;2023-05-29T01:49:10;100489.25;;;16.01;51.31
45323;BME280;31382;50.200;8.674;2023-05-29T01:54:13;100478.00;;;15.98;51.49
45323;BME280;31382;50.200;8.674;2023-05-29T01:59:15;100473.41;;;15.92;51.70
45323;BME280;31382;50.200;8.674;2023-05-29T02:04:16;100478.63;;;15.86;51.76
45323;BME280;31382;50.200;8.674;2023-05-29T02:09:18;100472.38;;;15.86;51.89
45323;BME280;31382;50.200;8.674;2023-05-29T02:14:19;100466.09;;;15.85;51.78
45323;BME280;31382;50.200;8.674;2023-05-29T02:19:21;100469.41;;;15.88;51.89
45323;BME280;31382;50.200;8.674;2023-05-29T02:24:22;100468.59;;;15.80;52.02
45323;BME280;31382;50.200;8.674;2023-05-29T02:29:24;100472.97;;;15.81;52.04
45323;BME280;31382;50.200;8.674;2023-05-29T02:34:25;100470.69;;;15.78;52.03
45323;BME280;31382;50.200;8.674;2023-05-29T02:39:26;100473.19;;;15.80;52.08
45323;BME280;31382;50.200;8.674;2023-05-29T02:44:28;100471.13;;;15.82;52.14
45323;BME280;31382;50.200;8.674;2023-05-29T02:49:29;100467.97;;;15.85;52.07
45323;BME280;31382;50.200;8.674;2023-05-29T02:54:30;100469.84;;;15.91;52.34
45323;BME280;31382;50.200;8.674;2023-05-29T02:59:32;100472.16;;;15.94;52.27
45323;BME280;31382;50.200;8.674;2023-05-29T03:04:34;100469.22;;;16.02;52.32
45323;BME280;31382;50.200;8.674;2023-05-29T03:09:35;100467.34;;;16.10;52.48
45323;BME280;31382;50.200;8.674;2023-05-29T03:14:37;100470.47;;;16.20;52.58
45323;BME280;31382;50.200;8.674;2023-05-29T03:19:38;100480.91;;;16.30;52.45
45323;BME280;31382;50.200;8.674;2023-05-29T03:24:40;100480.69;;;16.38;52.47
45323;BME280;31382;50.200;8.674;2023-05-29T03:29:41;100484.00;;;16.46;52.46
45323;BME280;31382;50.200;8.674;2023-05-29T03:34:43;100487.75;;;16.52;52.57
45323;BME280;31382;50.200;8.674;2023-05-29T03:39:44;100488.56;;;16.53;52.79
45323;BME280;31382;50.200;8.674;2023-05-29T03:44:46;100495.66;;;16.60;52.70
45323;BME280;31382;50.200;8.674;2023-05-29T03:49:48;100494.63;;;16.61;52.91
45323;BME280;31382;50.200;8.674;2023-05-29T03:54:49;100502.75;;;16.61;52.95
45323;BME280;31382;50.200;8.674;2023-05-29T03:59:50;100509.63;;;16.64;53.02
45323;BME280;31382;50.200;8.674;2023-05-29T04:04:52;100512.78;;;16.61;53.37
45323;BME280;31382;50.200;8.674;2023-05-29T04:09:54;100518.00;;;16.62;53.33
45323;BME280;31382;50.200;8.674;2023-05-29T04:14:55;100520.94;;;16.61;53.62
45323;BME280;31382;50.200;8.674;2023-05-29T04:19:57;100531.59;;;16.56;53.87
45323;BME280;31382;50.200;8.674;2023-05-29T04:24:58;100542.03;;;16.59;53.95
45323;BME280;31382;50.200;8.674;2023-05-29T04:29:59;100553.28;;;16.56;54.20
45323;BME280;31382;50.200;8.674;2023-05-29T04:35:01;100561.44;;;16.56;54.41
45323;BME280;31382;50.200;8.674;2023-05-29T04:40:08;100558.09;;;16.67;54.14
45323;BME280;31382;50.200;8.674;2023-05-29T04:45:10;100563.94;;;16.64;54.36
45323;BME280;31382;50.200;8.674;2023-05-29T04:50:16;100568.75;;;16.69;54.30
45323;BME280;31382;50.200;8.674;2023-05-29T04:55:17;100571.84;;;16.72;54.35
45323;BME280;31382;50.200;8.674;2023-05-29T05:00:19;100593.56;;;16.79;54.61
45323;BME280;31382;50.200;8.674;2023-05-29T05:05:21;100594.66;;;16.84;54.47
45323;BME280;31382;50.200;8.674;2023-05-29T05:10:22;100595.47;;;16.85;54.60
45323;BME280;31382;50.200;8.674;2023-05-29T05:15:24;100600.88;;;16.92;54.82
45323;BME280;31382;50.200;8.674;2023-05-29T05:20:25;100605.47;;;16.98;54.52
45323;BME280;31382;50.200;8.674;2023-05-29T05:25:27;100609.41;;;17.02;54.65
45323;BME280;31382;50.200;8.674;2023-05-29T05:30:28;100599.38;;;17.09;54.74
45323;BME280;31382;50.200;8.674;2023-05-29T05:35:29;100602.28;;;17.21;54.53
45323;BME280;31382;50.200;8.674;2023-05-29T05:40:31;100606.66;;;17.29;54.28
45323;BME280;31382;50.200;8.674;2023-05-29T05:45:33;100604.56;;;17.31;54.59
45323;BME280;31382;50.200;8.674;2023-05-29T05:50:35;100607.00;;;17.45;54.29
45323;BME280;31382;50.200;8.674;2023-05-29T05:55:37;100606.72;;;17.60;53.95
45323;BME280;31382;50.200;8.674;2023-05-29T06:00:39;100606.88;;;17.72;53.72
45323;BME280;31382;50.200;8.674;2023-05-29T06:05:41;100626.50;;;17.81;53.69
45323;BME280;31382;50.200;8.674;2023-05-29T06:10:42;100634.47;;;17.89;53.79
45323;BME280;31382;50.200;8.674;2023-05-29T06:15:44;100632.31;;;17.98;53.54
45323;BME280;31382;50.200;8.674;2023-05-29T06:20:46;100632.44;;;18.10;53.19
45323;BME280;31382;50.200;8.674;2023-05-29T06:25:48;100641.16;;;18.25;52.97
45323;BME280;31382;50.200;8.674;2023-05-29T06:30:50;100643.38;;;18.35;52.98
45323;BME280;31382;50.200;8.674;2023-05-29T06:35:52;100644.72;;;18.51;52.45
45323;BME280;31382;50.200;8.674;2023-05-29T06:40:53;100650.50;;;18.61;52.44
45323;BME280;31382;50.200;8.674;2023-05-29T06:45:55;100644.25;;;18.86;52.09
45323;BME280;31382;50.200;8.674;2023-05-29T06:50:57;100638.47;;;19.00;51.84
45323;BME280;31382;50.200;8.674;2023-05-29T06:55:58;100636.66;;;19.13;51.25
45323;BME280;31382;50.200;8.674;2023-05-29T07:01:00;100635.44;;;19.27;51.00
45323;BME280;31382;50.200;8.674;2023-05-29T07:06:06;100635.25;;;19.47;50.81
45323;BME280;31382;50.200;8.674;2023-05-29T07:11:08;100646.81;;;19.61;50.52
45323;BME280;31382;50.200;8.674;2023-05-29T07:16:09;100653.63;;;19.70;50.11
45323;BME280;31382;50.200;8.674;2023-05-29T07:21:24;100654.69;;;19.88;49.45
45323;BME280;31382;50.200;8.674;2023-05-29T07:26:26;100650.88;;;20.07;48.90
45323;BME280;31382;50.200;8.674;2023-05-29T07:31:27;100655.91;;;20.34;48.20
45323;BME280;31382;50.200;8.674;2023-05-29T07:36:29;100653.50;;;20.56;47.87
45323;BME280;31382;50.200;8.674;2023-05-29T07:41:32;100660.84;;;20.55;47.65
45323;BME280;31382;50.200;8.674;2023-05-29T07:46:34;100664.78;;;20.59;47.47
45323;BME280;31382;50.200;8.674;2023-05-29T07:51:36;100663.75;;;20.72;47.07
45323;BME280;31382;50.200;8.674;2023-05-29T07:56:38;100666.66;;;20.89;46.44
45323;BME280;31382;50.200;8.674;2023-05-29T08:01:41;100664.97;;;21.00;46.50
45323;BME280;31382;50.200;8.674;2023-05-29T08:06:44;100663.78;;;21.19;46.06
45323;BME280;31382;50.200;8.674;2023-05-29T08:11:46;100664.97;;;21.35;45.17
45323;BME280;31382;50.200;8.674;2023-05-29T08:16:48;100661.47;;;21.64;45.04
45323;BME280;31382;50.200;8.674;2023-05-29T08:21:50;100654.28;;;21.86;45.08
45323;BME280;31382;50.200;8.674;2023-05-29T08:26:51;100650.03;;;21.78;44.98
45323;BME280;31382;50.200;8.674;2023-05-29T08:31:53;100655.41;;;22.02;44.57
45323;BME280;31382;50.200;8.674;2023-05-29T08:36:55;100643.81;;;22.12;43.98
45323;BME280;31382;50.200;8.674;2023-05-29T08:42:13;100641.72;;;22.31;43.40
45323;BME280;31382;50.200;8.674;2023-05-29T08:47:19;100644.91;;;22.40;43.16
45323;BME280;31382;50.200;8.674;2023-05-29T08:52:23;100652.38;;;22.61;43.04
45323;BME280;31382;50.200;8.674;2023-05-29T08:57:29;100645.34;;;22.65;42.67
45323;BME280;31382;50.200;8.674;2023-05-29T09:02:31;100662.28;;;22.79;42.27
45323;BME280;31382;50.200;8.674;2023-05-29T09:07:33;100656.69;;;23.08;41.47
45323;BME280;31382;50.200;8.674;2023-05-29T09:12:35;100650.66;;;23.28;41.30
45323;BME280;31382;50.200;8.674;2023-05-29T09:17:38;100651.31;;;23.35;41.18
45323;BME280;31382;50.200;8.674;2023-05-29T09:22:42;100653.94;;;23.47;40.88
45323;BME280;31382;50.200;8.674;2023-05-29T09:27:50;100654.53;;;23.71;40.80
45323;BME280;31382;50.200;8.674;2023-05-29T09:32:53;100650.97;;;23.92;39.93
45323;BME280;31382;50.200;8.674;2023-05-29T09:37:55;100651.06;;;24.03;39.71
45323;BME280;31382;50.200;8.674;2023-05-29T09:43:16;100651.97;;;24.35;39.63
45323;BME280;31382;50.200;8.674;2023-05-29T09:48:25;100645.66;;;24.40;39.00
45323;BME280;31382;50.200;8.674;2023-05-29T09:53:27;100653.97;;;24.72;38.53
45323;BME280;31382;50.200;8.674;2023-05-29T09:58:32;100643.06;;;24.88;38.36
45323;BME280;31382;50.200;8.674;2023-05-29T10:03:34;100650.41;;;25.20;37.71
45323;BME280;31382;50.200;8.674;2023-05-29T10:08:37;100645.63;;;25.42;37.32
45323;BME280;31382;50.200;8.674;2023-05-29T10:13:43;100645.97;;;25.56;37.29
45323;BME280;31382;50.200;8.674;2023-05-29T10:18:55;100638.03;;;25.70;36.41
45323;BME280;31382;50.200;8.674;2023-05-29T10:23:57;100652.69;;;25.86;36.01
45323;BME280;31382;50.200;8.674;2023-05-29T10:29:25;100646.41;;;25.96;35.53
45323;BME280;31382;50.200;8.674;2023-05-29T10:35:08;100644.53;;;26.17;35.56
45323;BME280;31382;50.200;8.674;2023-05-29T10:40:13;100642.59;;;26.48;34.63
45323;BME280;31382;50.200;8.674;2023-05-29T10:50:42;100632.16;;;26.76;34.64
45323;BME280;31382;50.200;8.674;2023-05-29T10:55:45;100628.00;;;26.88;32.99
45323;BME280;31382;50.200;8.674;2023-05-29T11:00:47;100635.47;;;26.88;32.54
45323;BME280;31382;50.200;8.674;2023-05-29T11:06:00;100634.56;;;27.13;31.88
45323;BME280;31382;50.200;8.674;2023-05-29T11:11:12;100628.72;;;27.45;31.26
45323;BME280;31382;50.200;8.674;2023-05-29T11:26:45;100606.44;;;27.86;30.88
45323;BME280;31382;50.200;8.674;2023-05-29T11:31:49;100589.53;;;27.93;30.30
45323;BME280;31382;50.200;8.674;2023-05-29T11:36:58;100599.09;;;28.11;30.27
45323;BME280;31382;50.200;8.674;2023-05-29T11:42:00;100598.75;;;28.18;29.65
45323;BME280;31382;50.200;8.674;2023-05-29T11:47:03;100596.22;;;28.26;29.27
45323;BME280;31382;50.200;8.674;2023-05-29T11:52:15;100599.91;;;28.51;29.10
45323;BME280;31382;50.200;8.674;2023-05-29T11:57:21;100598.03;;;28.76;29.05
45323;BME280;31382;50.200;8.674;2023-05-29T12:02:23;100590.72;;;28.85;28.92
45323;BME280;31382;50.200;8.674;2023-05-29T12:07:26;100595.44;;;29.14;28.42
45323;BME280;31382;50.200;8.674;2023-05-29T12:12:28;100594.34;;;29.34;28.23
45323;BME280;31382;50.200;8.674;2023-05-29T12:17:31;100589.53;;;29.44;27.73
45323;BME280;31382;50.200;8.674;2023-05-29T12:22:37;100583.19;;;29.63;27.48
45323;BME280;31382;50.200;8.674;2023-05-29T12:27:40;100582.31;;;29.87;27.11
45323;BME280;31382;50.200;8.674;2023-05-29T12:32:48;100573.59;;;30.12;27.24
45323;BME280;31382;50.200;8.674;2023-05-29T12:38:00;100588.44;;;30.21;26.36
45323;BME280;31382;50.200;8.674;2023-05-29T12:43:05;100580.41;;;30.39;26.50
45323;BME280;31382;50.200;8.674;2023-05-29T12:48:07;100577.03;;;30.42;26.03
45323;BME280;31382;50.200;8.674;2023-05-29T12:53:11;100581.38;;;30.62;25.55
45323;BME280;31382;50.200;8.674;2023-05-29T12:58:14;100578.72;;;30.84;26.03
45323;BME280;31382;50.200;8.674;2023-05-29T13:03:16;100582.69;;;31.39;25.34
45323;BME280;31382;50.200;8.674;2023-05-29T13:08:18;100577.22;;;31.20;25.03
45323;BME280;31382;50.200;8.674;2023-05-29T13:13:20;100578.81;;;31.54;24.74
45323;BME280;31382;50.200;8.674;2023-05-29T13:18:23;100583.81;;;32.70;23.90
45323;BME280;31382;50.200;8.674;2023-05-29T13:23:24;100578.59;;;34.01;22.39
45323;BME280;31382;50.200;8.674;2023-05-29T13:28:29;100580.91;;;34.89;21.34
45323;BME280;31382;50.200;8.674;2023-05-29T13:33:30;100583.69;;;34.98;21.51
45323;BME280;31382;50.200;8.674;2023-05-29T13:38:32;100575.94;;;34.56;21.93
45323;BME280;31382;50.200;8.674;2023-05-29T13:43:33;100581.66;;;34.69;21.37
45323;BME280;31382;50.200;8.674;2023-05-29T13:48:44;100569.56;;;34.94;21.69
45323;BME280;31382;50.200;8.674;2023-05-29T13:53:46;100571.63;;;36.08;20.62
45323;BME280;31382;50.200;8.674;2023-05-29T13:58:48;100559.00;;;36.23;20.21
45323;BME280;31382;50.200;8.674;2023-05-29T14:03:49;100561.13;;;36.05;20.24
45323;BME280;31382;50.200;8.674;2023-05-29T14:08:51;100551.06;;;35.20;20.76
45323;BME280;31382;50.200;8.674;2023-05-29T14:13:52;100555.41;;;34.44;21.07
45323;BME280;31382;50.200;8.674;2023-05-29T14:18:54;100559.38;;;33.55;22.49
45323;BME280;31382;50.200;8.674;2023-05-29T14:23:55;100563.75;;;33.39;22.90
45323;BME280;31382;50.200;8.674;2023-05-29T14:28:57;100551.84;;;34.34;22.12
45323;BME280;31382;50.200;8.674;2023-05-29T14:34:14;100552.06;;;35.66;20.81
45323;BME280;31382;50.200;8.674;2023-05-29T14:39:15;100554.66;;;36.46;19.98
45323;BME280;31382;50.200;8.674;2023-05-29T14:44:17;100559.88;;;37.18;19.21
45323;BME280;31382;50.200;8.674;2023-05-29T14:49:19;100552.66;;;37.17;18.89
45323;BME280;31382;50.200;8.674;2023-05-29T14:54:21;100552.41;;;36.06;19.99
45323;BME280;31382;50.200;8.674;2023-05-29T14:59:22;100544.44;;;35.24;20.81
45323;BME280;31382;50.200;8.674;2023-05-29T15:04:24;100543.94;;;34.92;21.28
45323;BME280;31382;50.200;8.674;2023-05-29T15:09:26;100549.94;;;34.73;21.12
45323;BME280;31382;50.200;8.674;2023-05-29T15:14:27;100546.13;;;33.96;21.50
45323;BME280;31382;50.200;8.674;2023-05-29T15:19:29;100556.88;;;33.45;22.60
45323;BME280;31382;50.200;8.674;2023-05-29T15:24:31;100553.28;;;33.45;22.79
45323;BME280;31382;50.200;8.674;2023-05-29T15:29:34;100538.50;;;33.18;22.99
45323;BME280;31382;50.200;8.674;2023-05-29T15:34:36;100547.00;;;32.82;23.23
45323;BME280;31382;50.200;8.674;2023-05-29T15:39:39;100548.66;;;32.51;23.58
45323;BME280;31382;50.200;8.674;2023-05-29T15:44:41;100539.44;;;32.19;24.05
45323;BME280;31382;50.200;8.674;2023-05-29T15:49:42;100540.03;;;32.08;24.51
45323;BME280;31382;50.200;8.674;2023-05-29T15:54:44;100545.13;;;32.14;24.57
45323;BME280;31382;50.200;8.674;2023-05-29T15:59:45;100542.19;;;31.97;24.42
45323;BME280;31382;50.200;8.674;2023-05-29T16:04:47;100543.84;;;31.61;25.29
45323;BME280;31382;50.200;8.674;2023-05-29T16:10:06;100550.06;;;31.58;25.17
45323;BME280;31382;50.200;8.674;2023-05-29T16:15:08;100547.50;;;31.48;25.29
45323;BME280;31382;50.200;8.674;2023-05-29T16:20:10;100551.00;;;31.40;25.57
45323;BME280;31382;50.200;8.674;2023-05-29T16:25:12;100550.47;;;31.38;25.83
45323;BME280;31382;50.200;8.674;2023-05-29T16:30:13;100561.41;;;31.34;26.23
45323;BME280;31382;50.200;8.674;2023-05-29T16:35:15;100554.50;;;31.18;25.96
45323;BME280;31382;50.200;8.674;2023-05-29T16:40:17;100559.44;;;31.35;25.73
45323;BME280;31382;50.200;8.674;2023-05-29T16:45:21;100563.53;;;31.37;26.11
45323;BME280;31382;50.200;8.674;2023-05-29T16:50:22;100560.69;;;31.01;26.65
45323;BME280;31382;50.200;8.674;2023-05-29T16:55:25;100564.66;;;30.81;26.39
45323;BME280;31382;50.200;8.674;2023-05-29T17:00:26;100564.94;;;30.66;27.02
45323;BME280;31382;50.200;8.674;2023-05-29T17:05:28;100555.16;;;30.54;26.72
45323;BME280;31382;50.200;8.674;2023-05-29T17:10:32;100553.44;;;30.72;27.06
45323;BME280;31382;50.200;8.674;2023-05-29T17:15:34;100558.59;;;30.65;27.54
45323;BME280;31382;50.200;8.674;2023-05-29T17:20:35;100562.47;;;30.64;27.57
45323;BME280;31382;50.200;8.674;2023-05-29T17:25:37;100564.88;;;30.38;27.34
45323;BME280;31382;50.200;8.674;2023-05-29T17:30:38;100570.59;;;30.09;28.07
45323;BME280;31382;50.200;8.674;2023-05-29T17:35:40;100569.34;;;30.01;27.75
45323;BME280;31382;50.200;8.674;2023-05-29T17:40:41;100576.34;;;29.55;28.22
45323;BME280;31382;50.200;8.674;2023-05-29T17:45:43;100580.03;;;29.51;28.59
45323;BME280;31382;50.200;8.674;2023-05-29T17:50:47;100587.19;;;29.33;28.43
45323;BME280;31382;50.200;8.674;2023-05-29T17:55:48;100595.16;;;29.10;28.86
45323;BME280;31382;50.200;8.674;2023-05-29T18:00:50;100597.19;;;28.75;29.16
45323;BME280;31382;50.200;8.674;2023-05-29T18:05:52;100593.00;;;28.48;29.84
45323;BME280;31382;50.200;8.674;2023-05-29T18:10:55;100599.72;;;27.98;30.37
45323;BME280;31382;50.200;8.674;2023-05-29T18:15:56;100592.22;;;27.54;31.00
45323;BME280;31382;50.200;8.674;2023-05-29T18:20:58;100600.91;;;27.11;31.72
45323;BME280;31382;50.200;8.674;2023-05-29T18:26:00;100607.06;;;26.67;32.38
45323;BME280;31382;50.200;8.674;2023-05-29T18:31:01;100608.44;;;26.28;33.61
45323;BME280;31382;50.200;8.674;2023-05-29T18:36:03;100598.66;;;25.75;33.72
45323;BME280;31382;50.200;8.674;2023-05-29T18:41:04;100608.72;;;25.38;34.28
45323;BME280;31382;50.200;8.674;2023-05-29T18:46:06;100630.22;;;25.04;35.06
45323;BME280;31382;50.200;8.674;2023-05-29T18:51:09;100625.09;;;24.75;35.46
45323;BME280;31382;50.200;8.674;2023-05-29T18:56:11;100632.19;;;24.39;35.92
45323;BME280;31382;50.200;8.674;2023-05-29T19:01:13;100629.72;;;24.10;36.51
45323;BME280;31382;50.200;8.674;2023-05-29T19:06:31;100634.63;;;23.81;36.85
45323;BME280;31382;50.200;8.674;2023-05-29T19:11:33;100642.78;;;23.53;37.40
45323;BME280;31382;50.200;8.674;2023-05-29T19:16:35;100650.09;;;23.26;37.70
45323;BME280;31382;50.200;8.674;2023-05-29T19:21:36;100661.50;;;23.01;38.12
45323;BME280;31382;50.200;8.674;2023-05-29T19:26:40;100660.53;;;22.73;38.60
45323;BME280;31382;50.200;8.674;2023-05-29T19:31:43;100682.09;;;22.52;38.76
45323;BME280;31382;50.200;8.674;2023-05-29T19:36:44;100677.09;;;22.32;38.92
45323;BME280;31382;50.200;8.674;2023-05-29T19:41:45;100694.88;;;22.18;39.59
45323;BME280;31382;50.200;8.674;2023-05-29T19:46:47;100689.31;;;22.01;39.62
45323;BME280;31382;50.200;8.674;2023-05-29T19:51:50;100699.06;;;21.80;40.28
45323;BME280;31382;50.200;8.674;2023-05-29T19:56:53;100704.28;;;21.70;40.31
45323;BME280;31382;50.200;8.674;2023-05-29T20:01:54;100711.94;;;21.56;40.83
45323;BME280;31382;50.200;8.674;2023-05-29T20:06:56;100726.06;;;21.41;41.15
45323;BME280;31382;50.200;8.674;2023-05-29T20:11:58;100726.53;;;21.26;41.19
45323;BME280;31382;50.200;8.674;2023-05-29T20:16:59;100726.78;;;21.13;41.17
45323;BME280;31382;50.200;8.674;2023-05-29T20:22:01;100723.78;;;21.03;41.33
45323;BME280;31382;50.200;8.674;2023-05-29T20:27:03;100739.72;;;20.94;41.04
45323;BME280;31382;50.200;8.674;2023-05-29T20:32:04;100740.28;;;20.84;41.55
45323;BME280;31382;50.200;8.674;2023-05-29T20:37:06;100744.03;;;20.71;41.39
45323;BME280;31382;50.200;8.674;2023-05-29T20:42:08;100745.69;;;20.60;41.83
45323;BME280;31382;50.200;8.674;2023-05-29T20:47:12;100751.69;;;20.51;42.01
45323;BME280;31382;50.200;8.674;2023-05-29T20:52:14;100753.53;;;20.38;42.18
45323;BME280;31382;50.200;8.674;2023-05-29T20:57:15;100757.03;;;20.27;42.13
45323;BME280;31382;50.200;8.674;2023-05-29T21:02:17;100771.63;;;20.21;42.23
45323;BME280;31382;50.200;8.674;2023-05-29T21:07:18;100762.53;;;20.09;42.60
45323;BME280;31382;50.200;8.674;2023-05-29T21:12:20;100765.34;;;20.02;42.57
45323;BME280;31382;50.200;8.674;2023-05-29T21:17:21;100761.09;;;19.88;42.82
45323;BME280;31382;50.200;8.674;2023-05-29T21:22:23;100763.22;;;19.86;42.77
45323;BME280;31382;50.200;8.674;2023-05-29T21:27:24;100767.56;;;19.75;42.96
45323;BME280;31382;50.200;8.674;2023-05-29T21:32:27;100758.56;;;19.68;43.04
45323;BME280;31382;50.200;8.674;2023-05-29T21:37:29;100750.47;;;19.61;43.17
45323;BME280;31382;50.200;8.674;2023-05-29T21:42:30;100769.69;;;19.48;43.44
45323;BME280;31382;50.200;8.674;2023-05-29T21:47:32;100771.84;;;19.39;43.57
45323;BME280;31382;50.200;8.674;2023-05-29T21:52:33;100780.31;;;19.31;43.46
45323;BME280;31382;50.200;8.674;2023-05-29T21:57:35;100781.59;;;19.28;43.40
45323;BME280;31382;50.200;8.674;2023-05-29T22:02:36;100785.50;;;19.14;43.29
45323;BME280;31382;50.200;8.674;2023-05-29T22:07:38;100778.44;;;19.06;43.32
45323;BME280;31382;50.200;8.674;2023-05-29T22:12:40;100778.25;;;19.01;43.29
45323;BME280;31382;50.200;8.674;2023-05-29T22:17:43;100787.31;;;18.95;43.17
45323;BME280;31382;50.200;8.674;2023-05-29T22:22:47;100792.56;;;18.90;43.03
45323;BME280;31382;50.200;8.674;2023-05-29T22:27:48;100785.28;;;18.83;42.89
45323;BME280;31382;50.200;8.674;2023-05-29T22:32:50;100784.47;;;18.76;42.61
45323;BME280;31382;50.200;8.674;2023-05-29T22:37:53;100778.84;;;18.71;42.51
45323;BME280;31382;50.200;8.674;2023-05-29T22:42:54;100784.75;;;18.68;42.09
45323;BME280;31382;50.200;8.674;2023-05-29T22:47:57;100783.47;;;18.64;41.96
45323;BME280;31382;50.200;8.674;2023-05-29T22:52:59;100791.50;;;18.59;41.51
45323;BME280;31382;50.200;8.674;2023-05-29T22:58:01;100793.19;;;18.53;41.53
45323;BME280;31382;50.200;8.674;2023-05-29T23:03:02;100786.72;;;18.48;41.33
45323;BME280;31382;50.200;8.674;2023-05-29T23:08:06;100792.00;;;18.42;40.98
45323;BME280;31382;50.200;8.674;2023-05-29T23:13:07;100797.47;;;18.36;40.90
45323;BME280;31382;50.200;8.674;2023-05-29T23:18:09;100792.88;;;18.30;40.78
45323;BME280;31382;50.200;8.674;2023-05-29T23:23:11;100817.84;;;18.20;40.83
45323;BME280;31382;50.200;8.674;2023-05-29T23:28:13;100814.53;;;18.11;40.64
45323;BME280;31382;50.200;8.674;2023-05-29T23:33:15;100824.19;;;18.07;40.44
45323;BME280;31382;50.200;8.674;2023-05-29T23:38:16;100826.69;;;18.02;40.36
45323;BME280;31382;50.200;8.674;2023-05-29T23:43:17;100826.47;;;17.97;40.41
45323;BME280;31382;50.200;8.674;2023-05-29T23:48:19;100835.50;;;17.91;40.10
45323;BME280;31382;50.200;8.674;2023-05-29T23:53:20;100845.75;;;17.89;40.20
45323;BME280;31382;50.200;8.674;2023-05-29T23:58:22;100843.66;;;17.77;40.41
